Terminal Aerodrome Forecast
Issued by NWS

Home | Current Version | Previous Version | Text Only | Print | Product List | Glossary On
Versions: 1 2 3 4 5 6 7 8 9 10 11 12 13 14 15 16 17 18 19 20 21 22 23 24 25 26
000
FTUS45 KGJT 302338
TAFDRO
TAF
KDRO 302338Z 3100/3124 27008KT P6SM VCTS SCT090CB BKN150
      TEMPO 3100/3103 VRB15G20KT 1SM TSRA SCT050CB OVC070
     FM310300 04008KT P6SM VCSH SCT100 BKN150
     FM310600 36004KT P6SM VCSH SCT100 BKN150
     FM311500 19008KT P6SM VCSH SCT100 BKN150
     FM311900 26008G15KT P6SM VCTS SCT080CB BKN120=

USA.gov is the U.S. government's official web portal to all federal, state and local government web resources and services.